sensor_id;sensor_type;location;lat;lon;timestamp;P1;durP1;ratioP1;P2;durP2;ratioP2
1953;SDS011;977;42.704;23.354;2022-07-06T00:00:00;7.03;;;5.83;;
1953;SDS011;977;42.704;23.354;2022-07-06T00:02:25;6.83;;;5.90;;
1953;SDS011;977;42.704;23.354;2022-07-06T00:04:51;6.10;;;5.50;;
1953;SDS011;977;42.704;23.354;2022-07-06T00:07:16;10.63;;;6.47;;
1953;SDS011;977;42.704;23.354;2022-07-06T00:09:42;10.73;;;5.73;;
1953;SDS011;977;42.704;23.354;2022-07-06T00:12:07;6.63;;;6.00;;
1953;SDS011;977;42.704;23.354;2022-07-06T00:14:33;7.33;;;5.70;;
1953;SDS011;977;42.704;23.354;2022-07-06T00:17:00;11.40;;;6.73;;
1953;SDS011;977;42.704;23.354;2022-07-06T00:19:25;7.13;;;5.33;;
1953;SDS011;977;42.704;23.354;2022-07-06T00:21:50;7.80;;;6.17;;
1953;SDS011;977;42.704;23.354;2022-07-06T00:24:16;7.67;;;5.17;;
1953;SDS011;977;42.704;23.354;2022-07-06T00:26:43;9.50;;;5.20;;
1953;SDS011;977;42.704;23.354;2022-07-06T00:29:09;6.33;;;5.73;;
1953;SDS011;977;42.704;23.354;2022-07-06T00:31:34;8.60;;;5.53;;
1953;SDS011;977;42.704;23.354;2022-07-06T00:34:00;7.73;;;5.20;;
1953;SDS011;977;42.704;23.354;2022-07-06T00:36:25;7.23;;;5.47;;
1953;SDS011;977;42.704;23.354;2022-07-06T00:38:51;6.00;;;5.47;;
1953;SDS011;977;42.704;23.354;2022-07-06T00:41:16;7.43;;;6.60;;
1953;SDS011;977;42.704;23.354;2022-07-06T00:43:52;7.23;;;5.70;;
1953;SDS011;977;42.704;23.354;2022-07-06T00:46:22;5.50;;;5.00;;
1953;SDS011;977;42.704;23.354;2022-07-06T00:48:52;7.07;;;5.80;;
1953;SDS011;977;42.704;23.354;2022-07-06T00:51:18;6.63;;;5.70;;
1953;SDS011;977;42.704;23.354;2022-07-06T00:53:44;6.97;;;6.27;;
1953;SDS011;977;42.704;23.354;2022-07-06T00:56:11;9.13;;;5.97;;
1953;SDS011;977;42.704;23.354;2022-07-06T00:58:37;6.77;;;5.27;;
1953;SDS011;977;42.704;23.354;2022-07-06T01:01:02;13.03;;;5.73;;
1953;SDS011;977;42.704;23.354;2022-07-06T01:03:28;9.97;;;6.87;;
1953;SDS011;977;42.704;23.354;2022-07-06T01:05:53;5.87;;;5.30;;
1953;SDS011;977;42.704;23.354;2022-07-06T01:08:21;7.30;;;6.03;;
1953;SDS011;977;42.704;23.354;2022-07-06T01:10:47;8.00;;;7.00;;
1953;SDS011;977;42.704;23.354;2022-07-06T01:13:13;6.73;;;6.03;;
1953;SDS011;977;42.704;23.354;2022-07-06T01:15:38;7.83;;;5.70;;
1953;SDS011;977;42.704;23.354;2022-07-06T01:18:04;5.20;;;4.80;;
1953;SDS011;977;42.704;23.354;2022-07-06T01:20:29;6.73;;;6.00;;
1953;SDS011;977;42.704;23.354;2022-07-06T01:22:58;6.70;;;5.17;;
1953;SDS011;977;42.704;23.354;2022-07-06T01:25:24;6.80;;;5.20;;
1953;SDS011;977;42.704;23.354;2022-07-06T01:27:50;6.67;;;5.00;;
1953;SDS011;977;42.704;23.354;2022-07-06T01:30:16;5.20;;;4.70;;
1953;SDS011;977;42.704;23.354;2022-07-06T01:32:43;7.33;;;5.00;;
1953;SDS011;977;42.704;23.354;2022-07-06T01:35:10;6.00;;;4.83;;
1953;SDS011;977;42.704;23.354;2022-07-06T01:37:37;8.60;;;5.20;;
1953;SDS011;977;42.704;23.354;2022-07-06T01:40:03;11.20;;;6.83;;
1953;SDS011;977;42.704;23.354;2022-07-06T01:42:30;5.40;;;4.90;;
1953;SDS011;977;42.704;23.354;2022-07-06T01:44:56;7.77;;;6.90;;
1953;SDS011;977;42.704;23.354;2022-07-06T01:47:21;9.07;;;7.30;;
1953;SDS011;977;42.704;23.354;2022-07-06T01:49:47;7.10;;;6.40;;
1953;SDS011;977;42.704;23.354;2022-07-06T01:52:13;10.23;;;6.83;;
1953;SDS011;977;42.704;23.354;2022-07-06T01:54:39;8.50;;;6.47;;
1953;SDS011;977;42.704;23.354;2022-07-06T01:57:04;7.40;;;6.17;;
1953;SDS011;977;42.704;23.354;2022-07-06T01:59:30;6.10;;;5.57;;
1953;SDS011;977;42.704;23.354;2022-07-06T02:01:55;7.47;;;6.00;;
1953;SDS011;977;42.704;23.354;2022-07-06T02:04:21;6.93;;;5.93;;
1953;SDS011;977;42.704;23.354;2022-07-06T02:06:47;6.47;;;5.77;;
1953;SDS011;977;42.704;23.354;2022-07-06T02:09:12;7.10;;;6.00;;
1953;SDS011;977;42.704;23.354;2022-07-06T02:11:38;7.10;;;6.43;;
1953;SDS011;977;42.704;23.354;2022-07-06T02:14:03;4.93;;;4.40;;
1953;SDS011;977;42.704;23.354;2022-07-06T02:16:29;6.60;;;5.80;;
1953;SDS011;977;42.704;23.354;2022-07-06T02:18:54;5.83;;;5.27;;
1953;SDS011;977;42.704;23.354;2022-07-06T02:21:20;5.87;;;5.00;;
1953;SDS011;977;42.704;23.354;2022-07-06T02:23:45;8.20;;;5.90;;
1953;SDS011;977;42.704;23.354;2022-07-06T02:26:10;6.33;;;5.13;;
1953;SDS011;977;42.704;23.354;2022-07-06T02:28:36;13.33;;;5.17;;
1953;SDS011;977;42.704;23.354;2022-07-06T02:31:01;5.17;;;4.67;;
1953;SDS011;977;42.704;23.354;2022-07-06T02:33:27;8.53;;;5.60;;
1953;SDS011;977;42.704;23.354;2022-07-06T02:35:52;7.10;;;5.17;;
1953;SDS011;977;42.704;23.354;2022-07-06T02:38:18;16.03;;;5.43;;
1953;SDS011;977;42.704;23.354;2022-07-06T02:40:43;5.00;;;4.60;;
1953;SDS011;977;42.704;23.354;2022-07-06T02:43:09;5.77;;;5.20;;
1953;SDS011;977;42.704;23.354;2022-07-06T02:45:34;8.37;;;5.40;;
1953;SDS011;977;42.704;23.354;2022-07-06T02:48:00;5.17;;;4.67;;
1953;SDS011;977;42.704;23.354;2022-07-06T02:50:26;6.20;;;5.30;;
1953;SDS011;977;42.704;23.354;2022-07-06T02:52:51;7.27;;;5.40;;
1953;SDS011;977;42.704;23.354;2022-07-06T02:55:17;5.07;;;4.60;;
1953;SDS011;977;42.704;23.354;2022-07-06T02:57:42;4.97;;;4.57;;
1953;SDS011;977;42.704;23.354;2022-07-06T03:00:08;5.27;;;4.30;;
1953;SDS011;977;42.704;23.354;2022-07-06T03:02:35;4.67;;;4.10;;
1953;SDS011;977;42.704;23.354;2022-07-06T03:05:01;7.80;;;5.10;;
1953;SDS011;977;42.704;23.354;2022-07-06T03:07:26;8.93;;;5.93;;
1953;SDS011;977;42.704;23.354;2022-07-06T03:09:52;5.30;;;4.87;;
1953;SDS011;977;42.704;23.354;2022-07-06T03:12:17;6.03;;;5.33;;
1953;SDS011;977;42.704;23.354;2022-07-06T03:14:43;5.83;;;4.93;;
1953;SDS011;977;42.704;23.354;2022-07-06T03:17:08;6.07;;;5.47;;
1953;SDS011;977;42.704;23.354;2022-07-06T03:19:34;6.00;;;5.40;;
1953;SDS011;977;42.704;23.354;2022-07-06T03:21:59;6.63;;;5.60;;
1953;SDS011;977;42.704;23.354;2022-07-06T03:24:25;5.73;;;4.93;;
1953;SDS011;977;42.704;23.354;2022-07-06T03:26:50;7.07;;;6.13;;
1953;SDS011;977;42.704;23.354;2022-07-06T03:29:16;5.37;;;4.87;;
1953;SDS011;977;42.704;23.354;2022-07-06T03:31:41;6.77;;;4.87;;
1953;SDS011;977;42.704;23.354;2022-07-06T03:34:07;5.57;;;5.07;;
1953;SDS011;977;42.704;23.354;2022-07-06T03:36:32;8.40;;;6.50;;
1953;SDS011;977;42.704;23.354;2022-07-06T03:38:58;4.30;;;3.90;;
1953;SDS011;977;42.704;23.354;2022-07-06T03:41:23;6.40;;;5.30;;
1953;SDS011;977;42.704;23.354;2022-07-06T03:43:48;5.50;;;5.00;;
1953;SDS011;977;42.704;23.354;2022-07-06T03:46:14;6.17;;;5.67;;
1953;SDS011;977;42.704;23.354;2022-07-06T03:48:39;11.07;;;5.87;;
1953;SDS011;977;42.704;23.354;2022-07-06T03:51:05;6.90;;;5.27;;
1953;SDS011;977;42.704;23.354;2022-07-06T03:53:31;5.90;;;5.10;;
1953;SDS011;977;42.704;23.354;2022-07-06T03:55:57;4.43;;;4.13;;
1953;SDS011;977;42.704;23.354;2022-07-06T03:58:41;5.07;;;4.43;;
1953;SDS011;977;42.704;23.354;2022-07-06T04:01:06;5.30;;;4.80;;
1953;SDS011;977;42.704;23.354;2022-07-06T04:03:32;6.30;;;5.07;;
1953;SDS011;977;42.704;23.354;2022-07-06T04:05:57;4.67;;;3.90;;
1953;SDS011;977;42.704;23.354;2022-07-06T04:08:23;4.70;;;4.30;;
1953;SDS011;977;42.704;23.354;2022-07-06T04:10:48;4.90;;;3.43;;
1953;SDS011;977;42.704;23.354;2022-07-06T04:13:14;5.07;;;3.73;;
1953;SDS011;977;42.704;23.354;2022-07-06T04:15:39;4.57;;;4.20;;
1953;SDS011;977;42.704;23.354;2022-07-06T04:18:05;4.03;;;3.57;;
1953;SDS011;977;42.704;23.354;2022-07-06T04:20:31;5.50;;;4.07;;
1953;SDS011;977;42.704;23.354;2022-07-06T04:22:56;9.83;;;4.67;;
1953;SDS011;977;42.704;23.354;2022-07-06T04:25:22;5.43;;;4.37;;
1953;SDS011;977;42.704;23.354;2022-07-06T04:27:47;4.70;;;4.10;;
1953;SDS011;977;42.704;23.354;2022-07-06T04:30:13;5.30;;;4.80;;
1953;SDS011;977;42.704;23.354;2022-07-06T04:32:39;4.80;;;4.20;;
1953;SDS011;977;42.704;23.354;2022-07-06T04:35:05;6.27;;;4.13;;
1953;SDS011;977;42.704;23.354;2022-07-06T04:37:31;8.43;;;3.80;;
1953;SDS011;977;42.704;23.354;2022-07-06T04:39:57;7.63;;;4.80;;
1953;SDS011;977;42.704;23.354;2022-07-06T04:42:22;6.00;;;4.20;;
1953;SDS011;977;42.704;23.354;2022-07-06T04:44:49;6.20;;;4.47;;
1953;SDS011;977;42.704;23.354;2022-07-06T04:47:16;8.03;;;4.07;;
1953;SDS011;977;42.704;23.354;2022-07-06T04:49:43;5.97;;;5.37;;
1953;SDS011;977;42.704;23.354;2022-07-06T04:52:11;4.70;;;4.30;;
1953;SDS011;977;42.704;23.354;2022-07-06T04:54:38;10.47;;;4.67;;
1953;SDS011;977;42.704;23.354;2022-07-06T04:57:03;6.27;;;5.67;;
1953;SDS011;977;42.704;23.354;2022-07-06T04:59:29;5.50;;;4.73;;
1953;SDS011;977;42.704;23.354;2022-07-06T05:01:57;7.43;;;5.83;;
1953;SDS011;977;42.704;23.354;2022-07-06T05:04:23;7.67;;;6.87;;
1953;SDS011;977;42.704;23.354;2022-07-06T05:06:49;11.83;;;6.40;;
1953;SDS011;977;42.704;23.354;2022-07-06T05:09:15;8.27;;;6.00;;
1953;SDS011;977;42.704;23.354;2022-07-06T05:11:40;7.73;;;6.00;;
1953;SDS011;977;42.704;23.354;2022-07-06T05:14:06;7.07;;;5.77;;
1953;SDS011;977;42.704;23.354;2022-07-06T05:16:32;12.13;;;5.97;;
1953;SDS011;977;42.704;23.354;2022-07-06T05:19:02;6.50;;;5.73;;
1953;SDS011;977;42.704;23.354;2022-07-06T05:21:27;15.17;;;7.47;;
1953;SDS011;977;42.704;23.354;2022-07-06T05:23:53;7.30;;;6.13;;
1953;SDS011;977;42.704;23.354;2022-07-06T05:26:19;9.70;;;6.47;;
1953;SDS011;977;42.704;23.354;2022-07-06T05:28:49;6.83;;;6.13;;
1953;SDS011;977;42.704;23.354;2022-07-06T05:31:15;7.43;;;6.13;;
1953;SDS011;977;42.704;23.354;2022-07-06T05:33:41;10.00;;;6.17;;
1953;SDS011;977;42.704;23.354;2022-07-06T05:36:07;7.40;;;6.50;;
1953;SDS011;977;42.704;23.354;2022-07-06T05:38:32;7.37;;;6.63;;
1953;SDS011;977;42.704;23.354;2022-07-06T05:40:58;10.10;;;5.90;;
1953;SDS011;977;42.704;23.354;2022-07-06T05:43:24;9.00;;;6.73;;
1953;SDS011;977;42.704;23.354;2022-07-06T05:45:49;7.23;;;6.00;;
1953;SDS011;977;42.704;23.354;2022-07-06T05:48:15;6.23;;;5.60;;
1953;SDS011;977;42.704;23.354;2022-07-06T05:50:59;7.50;;;5.93;;
1953;SDS011;977;42.704;23.354;2022-07-06T05:53:25;10.20;;;6.00;;
1953;SDS011;977;42.704;23.354;2022-07-06T05:55:53;7.73;;;6.43;;
1953;SDS011;977;42.704;23.354;2022-07-06T05:58:18;5.97;;;5.37;;
1953;SDS011;977;42.704;23.354;2022-07-06T06:00:44;6.00;;;5.50;;
1953;SDS011;977;42.704;23.354;2022-07-06T06:03:12;7.47;;;6.23;;
1953;SDS011;977;42.704;23.354;2022-07-06T06:05:40;6.23;;;5.50;;
1953;SDS011;977;42.704;23.354;2022-07-06T06:08:06;7.37;;;5.57;;
1953;SDS011;977;42.704;23.354;2022-07-06T06:10:32;8.93;;;6.50;;
1953;SDS011;977;42.704;23.354;2022-07-06T06:12:57;6.57;;;5.97;;
1953;SDS011;977;42.704;23.354;2022-07-06T06:15:23;6.90;;;6.30;;
1953;SDS011;977;42.704;23.354;2022-07-06T06:17:49;6.30;;;5.50;;
1953;SDS011;977;42.704;23.354;2022-07-06T06:20:14;7.17;;;6.17;;
1953;SDS011;977;42.704;23.354;2022-07-06T06:22:58;6.73;;;5.37;;
1953;SDS011;977;42.704;23.354;2022-07-06T06:25:28;6.80;;;5.83;;
1953;SDS011;977;42.704;23.354;2022-07-06T06:28:05;5.67;;;4.80;;
1953;SDS011;977;42.704;23.354;2022-07-06T06:30:32;6.80;;;5.40;;
1953;SDS011;977;42.704;23.354;2022-07-06T06:33:08;8.20;;;5.90;;
1953;SDS011;977;42.704;23.354;2022-07-06T06:35:37;7.77;;;6.00;;
1953;SDS011;977;42.704;23.354;2022-07-06T06:38:03;8.57;;;6.10;;
1953;SDS011;977;42.704;23.354;2022-07-06T06:40:29;7.43;;;5.47;;
1953;SDS011;977;42.704;23.354;2022-07-06T06:42:54;7.17;;;5.60;;
1953;SDS011;977;42.704;23.354;2022-07-06T06:45:20;8.70;;;6.83;;
1953;SDS011;977;42.704;23.354;2022-07-06T06:47:45;9.40;;;6.23;;
1953;SDS011;977;42.704;23.354;2022-07-06T06:50:11;7.40;;;6.57;;
1953;SDS011;977;42.704;23.354;2022-07-06T06:52:36;7.03;;;5.93;;
1953;SDS011;977;42.704;23.354;2022-07-06T06:55:02;8.87;;;5.17;;
1953;SDS011;977;42.704;23.354;2022-07-06T06:57:28;7.10;;;5.90;;
1953;SDS011;977;42.704;23.354;2022-07-06T06:59:54;8.80;;;5.73;;
1953;SDS011;977;42.704;23.354;2022-07-06T07:02:20;7.20;;;5.17;;
1953;SDS011;977;42.704;23.354;2022-07-06T07:04:45;8.50;;;6.10;;
1953;SDS011;977;42.704;23.354;2022-07-06T07:07:11;8.43;;;5.80;;
1953;SDS011;977;42.704;23.354;2022-07-06T07:09:36;6.90;;;5.90;;
1953;SDS011;977;42.704;23.354;2022-07-06T07:12:02;8.13;;;6.07;;
1953;SDS011;977;42.704;23.354;2022-07-06T07:14:42;8.63;;;6.17;;
1953;SDS011;977;42.704;23.354;2022-07-06T07:17:08;7.83;;;6.00;;
1953;SDS011;977;42.704;23.354;2022-07-06T07:19:33;12.30;;;6.53;;
1953;SDS011;977;42.704;23.354;2022-07-06T07:21:59;6.60;;;5.70;;
1953;SDS011;977;42.704;23.354;2022-07-06T07:24:27;5.67;;;5.03;;
1953;SDS011;977;42.704;23.354;2022-07-06T07:26:52;7.93;;;6.00;;
1953;SDS011;977;42.704;23.354;2022-07-06T07:29:18;6.80;;;5.90;;
1953;SDS011;977;42.704;23.354;2022-07-06T07:31:43;6.63;;;5.17;;
1953;SDS011;977;42.704;23.354;2022-07-06T07:34:09;6.70;;;6.10;;
1953;SDS011;977;42.704;23.354;2022-07-06T07:36:35;6.97;;;6.27;;
1953;SDS011;977;42.704;23.354;2022-07-06T07:39:02;6.87;;;5.80;;
1953;SDS011;977;42.704;23.354;2022-07-06T07:41:28;6.20;;;5.60;;
1953;SDS011;977;42.704;23.354;2022-07-06T07:43:53;9.93;;;6.93;;
1953;SDS011;977;42.704;23.354;2022-07-06T07:46:19;8.63;;;5.90;;
1953;SDS011;977;42.704;23.354;2022-07-06T07:48:44;8.43;;;6.03;;
1953;SDS011;977;42.704;23.354;2022-07-06T07:51:10;11.73;;;6.33;;
1953;SDS011;977;42.704;23.354;2022-07-06T07:53:35;9.77;;;5.20;;
1953;SDS011;977;42.704;23.354;2022-07-06T07:56:01;6.90;;;5.10;;
1953;SDS011;977;42.704;23.354;2022-07-06T07:58:27;5.63;;;4.97;;
1953;SDS011;977;42.704;23.354;2022-07-06T08:00:52;6.90;;;6.33;;
1953;SDS011;977;42.704;23.354;2022-07-06T08:03:20;6.73;;;5.80;;
1953;SDS011;977;42.704;23.354;2022-07-06T08:05:45;6.20;;;5.60;;
1953;SDS011;977;42.704;23.354;2022-07-06T08:08:15;8.90;;;4.87;;
1953;SDS011;977;42.704;23.354;2022-07-06T08:10:44;5.10;;;4.53;;
1953;SDS011;977;42.704;23.354;2022-07-06T08:13:13;7.97;;;6.67;;
1953;SDS011;977;42.704;23.354;2022-07-06T08:15:40;7.40;;;6.50;;
1953;SDS011;977;42.704;23.354;2022-07-06T08:18:07;6.87;;;5.90;;
1953;SDS011;977;42.704;23.354;2022-07-06T08:20:36;7.97;;;6.43;;
1953;SDS011;977;42.704;23.354;2022-07-06T08:23:05;14.20;;;5.90;;
1953;SDS011;977;42.704;23.354;2022-07-06T08:25:35;7.00;;;5.70;;
1953;SDS011;977;42.704;23.354;2022-07-06T08:28:00;6.80;;;5.67;;
1953;SDS011;977;42.704;23.354;2022-07-06T08:30:26;6.10;;;5.50;;
1953;SDS011;977;42.704;23.354;2022-07-06T08:32:57;6.60;;;6.00;;
1953;SDS011;977;42.704;23.354;2022-07-06T08:35:41;6.50;;;5.70;;
1953;SDS011;977;42.704;23.354;2022-07-06T08:38:10;7.13;;;6.00;;
1953;SDS011;977;42.704;23.354;2022-07-06T08:40:48;7.30;;;5.87;;
1953;SDS011;977;42.704;23.354;2022-07-06T08:43:15;5.97;;;5.40;;
1953;SDS011;977;42.704;23.354;2022-07-06T08:45:41;6.30;;;5.70;;
1953;SDS011;977;42.704;23.354;2022-07-06T08:48:12;8.60;;;6.40;;
1953;SDS011;977;42.704;23.354;2022-07-06T08:51:05;5.70;;;5.10;;
1953;SDS011;977;42.704;23.354;2022-07-06T08:53:52;6.83;;;5.50;;
1953;SDS011;977;42.704;23.354;2022-07-06T08:56:20;5.40;;;5.00;;
1953;SDS011;977;42.704;23.354;2022-07-06T08:58:48;5.60;;;5.00;;
1953;SDS011;977;42.704;23.354;2022-07-06T09:01:14;5.57;;;4.77;;
1953;SDS011;977;42.704;23.354;2022-07-06T09:03:41;5.73;;;5.13;;
1953;SDS011;977;42.704;23.354;2022-07-06T09:06:19;5.77;;;3.90;;
1953;SDS011;977;42.704;23.354;2022-07-06T09:08:49;5.90;;;4.60;;
1953;SDS011;977;42.704;23.354;2022-07-06T09:11:17;5.77;;;5.27;;
1953;SDS011;977;42.704;23.354;2022-07-06T09:13:50;7.30;;;5.60;;
1953;SDS011;977;42.704;23.354;2022-07-06T09:16:24;6.27;;;5.60;;
1953;SDS011;977;42.704;23.354;2022-07-06T09:18:52;6.40;;;5.80;;
1953;SDS011;977;42.704;23.354;2022-07-06T09:21:24;6.93;;;6.23;;
1953;SDS011;977;42.704;23.354;2022-07-06T09:23:58;7.70;;;6.70;;
1953;SDS011;977;42.704;23.354;2022-07-06T09:26:27;8.17;;;6.13;;
1953;SDS011;977;42.704;23.354;2022-07-06T09:28:55;8.83;;;6.27;;
1953;SDS011;977;42.704;23.354;2022-07-06T09:31:21;5.93;;;5.43;;
1953;SDS011;977;42.704;23.354;2022-07-06T09:34:06;5.97;;;5.37;;
1953;SDS011;977;42.704;23.354;2022-07-06T09:39:23;5.40;;;4.90;;
1953;SDS011;977;42.704;23.354;2022-07-06T09:41:51;9.73;;;6.73;;
1953;SDS011;977;42.704;23.354;2022-07-06T09:44:40;8.27;;;6.67;;
1953;SDS011;977;42.704;23.354;2022-07-06T09:47:49;7.30;;;6.60;;
1953;SDS011;977;42.704;23.354;2022-07-06T09:50:23;7.63;;;6.43;;
1953;SDS011;977;42.704;23.354;2022-07-06T09:55:22;8.57;;;7.70;;
1953;SDS011;977;42.704;23.354;2022-07-06T09:57:54;8.17;;;6.60;;
1953;SDS011;977;42.704;23.354;2022-07-06T10:00:22;9.80;;;6.20;;
1953;SDS011;977;42.704;23.354;2022-07-06T10:02:48;8.97;;;7.80;;
1953;SDS011;977;42.704;23.354;2022-07-06T10:05:22;7.20;;;6.33;;
1953;SDS011;977;42.704;23.354;2022-07-06T10:07:56;11.27;;;7.83;;
1953;SDS011;977;42.704;23.354;2022-07-06T10:10:26;8.73;;;7.73;;
1953;SDS011;977;42.704;23.354;2022-07-06T10:12:56;8.20;;;7.40;;
1953;SDS011;977;42.704;23.354;2022-07-06T10:15:24;5.67;;;5.10;;
1953;SDS011;977;42.704;23.354;2022-07-06T10:17:51;6.67;;;5.93;;
1953;SDS011;977;42.704;23.354;2022-07-06T10:20:17;9.63;;;6.80;;
1953;SDS011;977;42.704;23.354;2022-07-06T10:22:45;9.10;;;7.40;;
1953;SDS011;977;42.704;23.354;2022-07-06T10:25:15;9.23;;;8.20;;
1953;SDS011;977;42.704;23.354;2022-07-06T10:27:42;10.27;;;6.60;;
1953;SDS011;977;42.704;23.354;2022-07-06T10:30:10;12.83;;;6.83;;
1953;SDS011;977;42.704;23.354;2022-07-06T10:32:36;6.83;;;6.20;;
1953;SDS011;977;42.704;23.354;2022-07-06T10:35:12;7.20;;;6.60;;
1953;SDS011;977;42.704;23.354;2022-07-06T10:37:38;9.73;;;6.57;;
1953;SDS011;977;42.704;23.354;2022-07-06T10:40:04;7.40;;;6.53;;
1953;SDS011;977;42.704;23.354;2022-07-06T10:43:03;10.53;;;6.57;;
1953;SDS011;977;42.704;23.354;2022-07-06T10:53:03;8.27;;;7.20;;
1953;SDS011;977;42.704;23.354;2022-07-06T10:55:37;7.60;;;6.53;;
1953;SDS011;977;42.704;23.354;2022-07-06T10:58:04;7.50;;;6.80;;
1953;SDS011;977;42.704;23.354;2022-07-06T11:06:32;9.10;;;7.63;;
1953;SDS011;977;42.704;23.354;2022-07-06T11:09:06;8.43;;;7.63;;
1953;SDS011;977;42.704;23.354;2022-07-06T11:19:19;7.93;;;7.23;;
1953;SDS011;977;42.704;23.354;2022-07-06T11:21:51;8.50;;;7.70;;
1953;SDS011;977;42.704;23.354;2022-07-06T11:24:22;8.17;;;7.37;;
1953;SDS011;977;42.704;23.354;2022-07-06T11:27:14;7.97;;;7.27;;
1953;SDS011;977;42.704;23.354;2022-07-06T11:29:50;10.20;;;8.17;;
1953;SDS011;977;42.704;23.354;2022-07-06T11:32:15;8.90;;;8.10;;
1953;SDS011;977;42.704;23.354;2022-07-06T11:34:48;8.43;;;7.53;;
1953;SDS011;977;42.704;23.354;2022-07-06T11:37:14;8.50;;;7.70;;
1953;SDS011;977;42.704;23.354;2022-07-06T11:39:44;8.20;;;7.40;;
1953;SDS011;977;42.704;23.354;2022-07-06T11:42:11;8.67;;;7.87;;
1953;SDS011;977;42.704;23.354;2022-07-06T11:44:44;8.87;;;7.67;;
1953;SDS011;977;42.704;23.354;2022-07-06T11:47:10;6.60;;;6.00;;
1953;SDS011;977;42.704;23.354;2022-07-06T11:49:37;7.53;;;6.87;;
1953;SDS011;977;42.704;23.354;2022-07-06T11:52:07;8.10;;;7.30;;
1953;SDS011;977;42.704;23.354;2022-07-06T11:54:36;8.93;;;7.70;;
1953;SDS011;977;42.704;23.354;2022-07-06T11:57:07;9.30;;;8.40;;
1953;SDS011;977;42.704;23.354;2022-07-06T11:59:35;10.33;;;8.20;;
1953;SDS011;977;42.704;23.354;2022-07-06T12:02:03;7.90;;;7.10;;
1953;SDS011;977;42.704;23.354;2022-07-06T12:04:30;7.50;;;6.70;;
1953;SDS011;977;42.704;23.354;2022-07-06T12:07:04;8.03;;;7.23;;
1953;SDS011;977;42.704;23.354;2022-07-06T12:09:33;8.43;;;7.57;;
1953;SDS011;977;42.704;23.354;2022-07-06T12:12:03;6.90;;;6.30;;
1953;SDS011;977;42.704;23.354;2022-07-06T12:14:30;6.40;;;5.90;;
1953;SDS011;977;42.704;23.354;2022-07-06T12:16:59;7.90;;;7.13;;
1953;SDS011;977;42.704;23.354;2022-07-06T12:19:38;11.03;;;6.60;;
1953;SDS011;977;42.704;23.354;2022-07-06T12:22:04;7.63;;;6.50;;
1953;SDS011;977;42.704;23.354;2022-07-06T12:24:31;9.20;;;6.70;;
1953;SDS011;977;42.704;23.354;2022-07-06T12:26:59;8.10;;;6.97;;
1953;SDS011;977;42.704;23.354;2022-07-06T12:29:46;9.30;;;6.60;;
1953;SDS011;977;42.704;23.354;2022-07-06T12:32:18;7.50;;;6.87;;
1953;SDS011;977;42.704;23.354;2022-07-06T12:35:04;7.80;;;6.70;;
1953;SDS011;977;42.704;23.354;2022-07-06T12:37:33;6.33;;;5.83;;
1953;SDS011;977;42.704;23.354;2022-07-06T12:40:01;8.70;;;6.27;;
1953;SDS011;977;42.704;23.354;2022-07-06T12:42:42;6.87;;;5.77;;
1953;SDS011;977;42.704;23.354;2022-07-06T12:45:11;5.67;;;5.27;;
1953;SDS011;977;42.704;23.354;2022-07-06T12:47:37;5.63;;;5.13;;
1953;SDS011;977;42.704;23.354;2022-07-06T12:50:08;6.30;;;5.80;;
1953;SDS011;977;42.704;23.354;2022-07-06T12:52:36;6.30;;;5.70;;
1953;SDS011;977;42.704;23.354;2022-07-06T12:55:02;6.37;;;5.70;;
1953;SDS011;977;42.704;23.354;2022-07-06T12:57:41;6.23;;;5.60;;
1953;SDS011;977;42.704;23.354;2022-07-06T13:00:08;6.00;;;5.50;;
1953;SDS011;977;42.704;23.354;2022-07-06T13:02:37;5.90;;;4.87;;
1953;SDS011;977;42.704;23.354;2022-07-06T13:05:05;5.87;;;5.37;;
1953;SDS011;977;42.704;23.354;2022-07-06T13:07:33;6.77;;;5.53;;
1953;SDS011;977;42.704;23.354;2022-07-06T13:10:03;5.03;;;4.60;;
1953;SDS011;977;42.704;23.354;2022-07-06T13:12:30;5.57;;;5.13;;
1953;SDS011;977;42.704;23.354;2022-07-06T13:14:57;6.40;;;5.47;;
1953;SDS011;977;42.704;23.354;2022-07-06T13:17:26;7.17;;;4.20;;
1953;SDS011;977;42.704;23.354;2022-07-06T13:19:52;5.20;;;4.80;;
1953;SDS011;977;42.704;23.354;2022-07-06T13:22:22;4.50;;;4.10;;
1953;SDS011;977;42.704;23.354;2022-07-06T13:25:09;5.00;;;4.60;;
1953;SDS011;977;42.704;23.354;2022-07-06T13:27:40;4.37;;;4.07;;
1953;SDS011;977;42.704;23.354;2022-07-06T13:30:05;3.90;;;3.60;;
1953;SDS011;977;42.704;23.354;2022-07-06T13:32:31;3.60;;;3.30;;
1953;SDS011;977;42.704;23.354;2022-07-06T13:34:57;3.50;;;3.30;;
1953;SDS011;977;42.704;23.354;2022-07-06T13:37:30;3.57;;;3.37;;
1953;SDS011;977;42.704;23.354;2022-07-06T13:39:58;3.10;;;2.90;;
1953;SDS011;977;42.704;23.354;2022-07-06T13:42:26;4.90;;;3.10;;
1953;SDS011;977;42.704;23.354;2022-07-06T13:44:54;2.80;;;2.70;;
1953;SDS011;977;42.704;23.354;2022-07-06T13:47:20;3.40;;;3.10;;
1953;SDS011;977;42.704;23.354;2022-07-06T13:49:45;2.13;;;2.00;;
1953;SDS011;977;42.704;23.354;2022-07-06T13:52:12;1.93;;;1.83;;
1953;SDS011;977;42.704;23.354;2022-07-06T13:54:38;3.17;;;2.60;;
1953;SDS011;977;42.704;23.354;2022-07-06T13:57:04;2.53;;;2.43;;
1953;SDS011;977;42.704;23.354;2022-07-06T13:59:33;2.43;;;2.23;;
1953;SDS011;977;42.704;23.354;2022-07-06T14:01:58;6.60;;;2.20;;
1953;SDS011;977;42.704;23.354;2022-07-06T14:04:24;2.93;;;2.33;;
1953;SDS011;977;42.704;23.354;2022-07-06T14:06:50;2.37;;;2.27;;
1953;SDS011;977;42.704;23.354;2022-07-06T14:09:15;1.90;;;1.80;;
1953;SDS011;977;42.704;23.354;2022-07-06T14:11:44;2.30;;;2.10;;
1953;SDS011;977;42.704;23.354;2022-07-06T14:14:13;1.90;;;1.80;;
1953;SDS011;977;42.704;23.354;2022-07-06T14:16:44;2.00;;;1.90;;
1953;SDS011;977;42.704;23.354;2022-07-06T14:19:10;1.97;;;1.80;;
1953;SDS011;977;42.704;23.354;2022-07-06T14:21:35;2.70;;;2.27;;
1953;SDS011;977;42.704;23.354;2022-07-06T14:24:01;6.10;;;2.30;;
1953;SDS011;977;42.704;23.354;2022-07-06T14:26:26;2.27;;;2.07;;
1953;SDS011;977;42.704;23.354;2022-07-06T14:28:52;1.90;;;1.80;;
1953;SDS011;977;42.704;23.354;2022-07-06T14:31:21;2.20;;;2.00;;
1953;SDS011;977;42.704;23.354;2022-07-06T14:33:46;2.93;;;1.67;;
1953;SDS011;977;42.704;23.354;2022-07-06T14:36:12;2.00;;;1.80;;
1953;SDS011;977;42.704;23.354;2022-07-06T14:38:37;2.00;;;1.90;;
1953;SDS011;977;42.704;23.354;2022-07-06T14:41:03;2.00;;;1.90;;
1953;SDS011;977;42.704;23.354;2022-07-06T14:43:34;2.70;;;1.90;;
1953;SDS011;977;42.704;23.354;2022-07-06T14:46:01;2.63;;;1.90;;
1953;SDS011;977;42.704;23.354;2022-07-06T14:48:27;1.87;;;1.77;;
1953;SDS011;977;42.704;23.354;2022-07-06T14:50:55;1.73;;;1.63;;
1953;SDS011;977;42.704;23.354;2022-07-06T14:53:22;2.30;;;1.80;;
1953;SDS011;977;42.704;23.354;2022-07-06T14:55:48;2.07;;;1.97;;
1953;SDS011;977;42.704;23.354;2022-07-06T14:58:14;2.43;;;2.00;;
1953;SDS011;977;42.704;23.354;2022-07-06T15:00:42;2.37;;;2.23;;
1953;SDS011;977;42.704;23.354;2022-07-06T15:03:09;3.03;;;2.40;;
1953;SDS011;977;42.704;23.354;2022-07-06T15:05:35;3.10;;;1.80;;
1953;SDS011;977;42.704;23.354;2022-07-06T15:08:01;3.90;;;1.40;;
1953;SDS011;977;42.704;23.354;2022-07-06T15:10:27;1.70;;;1.60;;
1953;SDS011;977;42.704;23.354;2022-07-06T15:12:52;2.10;;;2.00;;
1953;SDS011;977;42.704;23.354;2022-07-06T15:15:18;1.90;;;1.80;;
1953;SDS011;977;42.704;23.354;2022-07-06T15:17:46;2.10;;;2.00;;
1953;SDS011;977;42.704;23.354;2022-07-06T15:20:11;2.00;;;1.73;;
1953;SDS011;977;42.704;23.354;2022-07-06T15:22:40;1.80;;;1.70;;
1953;SDS011;977;42.704;23.354;2022-07-06T15:25:09;2.07;;;1.97;;
1953;SDS011;977;42.704;23.354;2022-07-06T15:27:39;2.10;;;1.90;;
1953;SDS011;977;42.704;23.354;2022-07-06T15:30:05;2.53;;;2.33;;
1953;SDS011;977;42.704;23.354;2022-07-06T15:32:31;1.77;;;1.67;;
1953;SDS011;977;42.704;23.354;2022-07-06T15:35:00;2.10;;;2.00;;
1953;SDS011;977;42.704;23.354;2022-07-06T15:37:28;1.53;;;1.43;;
1953;SDS011;977;42.704;23.354;2022-07-06T15:40:00;2.03;;;1.93;;
1953;SDS011;977;42.704;23.354;2022-07-06T15:42:27;1.97;;;1.87;;
1953;SDS011;977;42.704;23.354;2022-07-06T15:44:56;2.43;;;2.30;;